Time;durP1;ratioP1;P1;durP2;ratioP2;P2;SDS_P1;SDS_P2;PMS_P1;PMS_P2;Temp;Humidity;BMP_temperature;BMP_pressure;BME280_temperature;BME280_humidity;BME280_pressure;Samples;Min_cycle;Max_cycle;Signal;HPM_P1;HPM_P2
2023/03/09 00:00:42;;;;;;;;;;;;;;;5.15;66.18;98278.19;5030980;28;5502;-79
2023/03/09 00:03:15;;;;;;;;;;;;;;;5.15;66.10;98276.31;5045374;28;5345;-80
2023/03/09 00:05:41;;;;;;;;;;;;;;;5.13;66.08;98274.94;5063582;28;5251;-79
2023/03/09 00:08:08;;;;;;;;;;;;;;;5.13;66.04;98270.41;5049547;28;5143;-81
2023/03/09 00:10:34;;;;;;;;;;;;;;;5.11;65.83;98269.03;5046813;28;5071;-79
2023/03/09 00:13:01;;;;;;;;;;;;;;;5.10;66.25;98276.22;5043704;28;4308;-80
2023/03/09 00:15:28;;;;;;;;;;;;;;;5.09;66.01;98274.63;5059229;28;5087;-79
2023/03/09 00:17:54;;;;;;;;;;;;;;;5.10;66.11;98270.09;5061115;28;5276;-80
2023/03/09 00:20:22;;;;;;;;;;;;;;;5.07;66.38;98263.38;5059731;28;5129;-81
2023/03/09 00:22:48;;;;;;;;;;;;;;;5.11;66.03;98261.81;5065716;28;5120;-79
2023/03/09 00:25:15;;;;;;;;;;;;;;;5.09;65.97;98265.78;5024884;28;5062;-78
2023/03/09 00:27:42;;;;;;;;;;;;;;;5.06;66.04;98259.09;5042816;28;5315;-80
2023/03/09 00:30:09;;;;;;;;;;;;;;;5.06;66.04;98259.09;5063837;28;5301;-80
2023/03/09 00:32:35;;;;;;;;;;;;;;;5.04;66.19;98247.84;5029512;28;5333;-80
2023/03/09 00:35:02;;;;;;;;;;;;;;;5.05;66.06;98248.66;5059072;28;5360;-79
2023/03/09 00:37:29;;;;;;;;;;;;;;;5.03;66.08;98242.72;5041875;28;5316;-79
2023/03/09 00:39:55;;;;;;;;;;;;;;;5.03;66.24;98246.22;5047404;28;5351;-79
2023/03/09 00:42:22;;;;;;;;;;;;;;;5.00;66.08;98244.84;5046772;28;4695;-79
2023/03/09 00:44:48;;;;;;;;;;;;;;;5.01;66.15;98251.00;5030943;28;5266;-80
2023/03/09 00:47:15;;;;;;;;;;;;;;;5.00;66.08;98247.50;5043354;28;5108;-80
2023/03/09 00:49:41;;;;;;;;;;;;;;;5.01;66.01;98256.31;5031171;28;5235;-78
2023/03/09 00:52:08;;;;;;;;;;;;;;;5.02;65.90;98249.94;5046100;28;4570;-80
2023/03/09 00:54:34;;;;;;;;;;;;;;;5.01;66.13;98251.78;5045070;28;4516;-79
2023/03/09 00:57:01;;;;;;;;;;;;;;;4.98;66.02;98251.47;5049307;28;5014;-79
2023/03/09 00:59:28;;;;;;;;;;;;;;;4.98;66.02;98243.47;5045710;28;5209;-81
2023/03/09 01:01:54;;;;;;;;;;;;;;;4.98;66.06;98243.47;5028591;28;5109;-79
2023/03/09 01:04:21;;;;;;;;;;;;;;;4.98;66.00;98246.13;5063869;28;5087;-80
2023/03/09 01:06:47;;;;;;;;;;;;;;;5.00;65.87;98249.38;5028650;28;5145;-79
2023/03/09 01:09:14;;;;;;;;;;;;;;;4.99;65.71;98250.41;5064390;28;5180;-79
2023/03/09 01:11:40;;;;;;;;;;;;;;;4.96;66.24;98246.34;5044639;28;5100;-79
2023/03/09 01:14:07;;;;;;;;;;;;;;;4.93;66.11;98244.16;5048137;28;5093;-81
2023/03/09 01:16:33;;;;;;;;;;;;;;;4.96;65.90;98246.34;5048485;28;5060;-80
2023/03/09 01:19:00;;;;;;;;;;;;;;;4.94;66.15;98237.81;5066370;28;5169;-81
2023/03/09 01:21:26;;;;;;;;;;;;;;;4.91;65.90;98238.28;5049311;28;5104;-80
2023/03/09 01:23:53;;;;;;;;;;;;;;;4.92;65.83;98237.22;5047030;28;5251;-78
2023/03/09 01:26:20;;;;;;;;;;;;;;;4.89;66.04;98244.91;5060144;28;5314;-80
2023/03/09 01:28:46;;;;;;;;;;;;;;;4.88;66.00;98236.09;5044549;28;5206;-79
2023/03/09 01:31:13;;;;;;;;;;;;;;;4.91;65.83;98237.44;5021178;28;5156;-79
2023/03/09 01:33:39;;;;;;;;;;;;;;;4.89;65.96;98237.69;5041944;28;4983;-80
2023/03/09 01:36:06;;;;;;;;;;;;;;;4.85;65.90;98235.75;5044046;28;5052;-81
2023/03/09 01:38:33;;;;;;;;;;;;;;;4.87;66.12;98241.66;5023381;28;5299;-80
2023/03/09 01:41:00;;;;;;;;;;;;;;;4.87;65.82;98237.13;5060733;28;5397;-80
2023/03/09 01:43:26;;;;;;;;;;;;;;;4.86;65.90;98240.03;5061410;28;5213;-81
2023/03/09 01:45:53;;;;;;;;;;;;;;;4.85;65.95;98249.06;5025333;28;4575;-80
2023/03/09 01:48:19;;;;;;;;;;;;;;;4.81;65.98;98243.41;5043311;28;5176;-79
2023/03/09 01:50:46;;;;;;;;;;;;;;;4.80;65.91;98244.47;5063564;28;4684;-80
2023/03/09 01:53:12;;;;;;;;;;;;;;;4.82;65.89;98239.69;5025914;28;5056;-80
2023/03/09 01:55:39;;;;;;;;;;;;;;;4.81;65.82;98234.59;5050312;28;5311;-79
2023/03/09 01:58:06;;;;;;;;;;;;;;;4.82;65.81;98231.69;5030915;28;4748;-79
2023/03/09 02:00:33;;;;;;;;;;;;;;;4.78;65.86;98234.03;5030527;28;5130;-81
2023/03/09 02:02:59;;;;;;;;;;;;;;;4.75;65.90;98236.38;5018630;28;5247;-79
2023/03/09 02:05:26;;;;;;;;;;;;;;;4.74;65.99;98235.56;5037370;28;5100;-78
2023/03/09 02:07:52;;;;;;;;;;;;;;;4.74;65.92;98235.56;5048223;28;4660;-79
2023/03/09 02:10:19;;;;;;;;;;;;;;;4.74;65.98;98238.22;5024444;28;5216;-78
2023/03/09 02:12:47;;;;;;;;;;;;;;;4.73;66.03;98241.13;5042244;28;4884;-79
2023/03/09 02:15:13;;;;;;;;;;;;;;;4.72;65.98;98242.97;5039438;28;5368;-77
2023/03/09 02:17:40;;;;;;;;;;;;;;;4.73;65.95;98254.44;5037873;28;5257;-80
2023/03/09 02:20:06;;;;;;;;;;;;;;;4.70;65.95;98245.06;5038659;28;4457;-78
2023/03/09 02:22:33;;;;;;;;;;;;;;;4.70;65.99;98247.72;5061727;28;5180;-79
2023/03/09 02:24:59;;;;;;;;;;;;;;;4.70;65.89;98241.59;5038824;28;5153;-77
2023/03/09 02:27:26;;;;;;;;;;;;;;;4.70;66.11;98252.25;5023849;28;5008;-81
2023/03/09 02:29:52;;;;;;;;;;;;;;;4.69;65.86;98248.78;5040223;28;4888;-78
2023/03/09 02:32:19;;;;;;;;;;;;;;;4.70;65.84;98252.25;5043706;28;5191;-80
2023/03/09 02:34:45;;;;;;;;;;;;;;;4.69;65.94;98256.00;5063696;28;5168;-80
2023/03/09 02:37:12;;;;;;;;;;;;;;;4.67;65.86;98255.41;5043493;28;4947;-80
2023/03/09 02:39:39;;;;;;;;;;;;;;;4.68;65.84;98260.50;5044419;28;5307;-79
2023/03/09 02:42:05;;;;;;;;;;;;;;;4.69;65.69;98264.00;5044048;28;4899;-79
2023/03/09 02:44:32;;;;;;;;;;;;;;;4.67;65.78;98260.75;5045521;28;5204;-79
2023/03/09 02:46:58;;;;;;;;;;;;;;;4.67;65.82;98258.88;5062743;28;5320;-79
2023/03/09 02:49:25;;;;;;;;;;;;;;;4.67;65.80;98258.88;5029346;28;5456;-79
2023/03/09 02:51:51;;;;;;;;;;;;;;;4.66;65.63;98267.13;5065642;28;5415;-79
2023/03/09 02:54:18;;;;;;;;;;;;;;;4.66;65.61;98261.78;5047076;28;5433;-79
2023/03/09 02:56:44;;;;;;;;;;;;;;;4.65;65.70;98257.53;5045090;28;5236;-77
2023/03/09 02:59:11;;;;;;;;;;;;;;;4.65;65.61;98266.31;5040739;28;5183;-79
2023/03/09 03:01:37;;;;;;;;;;;;;;;4.63;65.86;98260.41;5042520;28;5382;-78
2023/03/09 03:04:04;;;;;;;;;;;;;;;4.64;65.78;98261.22;5044140;28;4738;-78
2023/03/09 03:06:30;;;;;;;;;;;;;;;4.64;65.48;98262.00;5045168;28;5206;-79
2023/03/09 03:08:57;;;;;;;;;;;;;;;4.63;65.64;98272.94;5042196;28;5100;-78
2023/03/09 03:11:24;;;;;;;;;;;;;;;4.62;65.65;98264.13;5027908;28;5061;-79
2023/03/09 03:13:51;;;;;;;;;;;;;;;4.61;65.81;98264.34;5029627;28;4899;-79
2023/03/09 03:16:17;;;;;;;;;;;;;;;4.65;65.51;98271.66;5027136;28;5018;-80
2023/03/09 03:18:44;;;;;;;;;;;;;;;4.63;65.77;98275.59;5026083;28;5143;-78
2023/03/09 03:21:11;;;;;;;;;;;;;;;4.62;65.57;98274.78;5031306;28;4888;-78
2023/03/09 03:23:38;;;;;;;;;;;;;;;4.61;65.54;98270.50;5049350;28;5472;-78
2023/03/09 03:26:05;;;;;;;;;;;;;;;4.61;65.63;98270.50;5048856;28;5104;-78
2023/03/09 03:28:31;;;;;;;;;;;;;;;4.59;65.60;98283.28;5066072;28;5244;-77
2023/03/09 03:30:58;;;;;;;;;;;;;;;4.59;65.51;98285.94;5063347;28;4967;-78
2023/03/09 03:33:24;;;;;;;;;;;;;;;4.61;65.50;98293.69;5044633;28;5151;-80
2023/03/09 03:35:51;;;;;;;;;;;;;;;4.60;65.48;98292.06;5023241;28;5358;-79
2023/03/09 03:38:18;;;;;;;;;;;;;;;4.56;65.64;98294.41;5033766;28;4919;-79
2023/03/09 03:40:45;;;;;;;;;;;;;;;4.59;65.21;98291.25;5003599;28;5048;-79
2023/03/09 03:43:11;;;;;;;;;;;;;;;4.58;65.31;98297.63;5033979;28;5086;-79
2023/03/09 03:45:38;;;;;;;;;;;;;;;4.55;65.08;98300.75;5037339;28;5007;-79
2023/03/09 03:48:05;;;;;;;;;;;;;;;4.56;65.35;98297.06;5033038;28;5243;-79
2023/03/09 03:50:31;;;;;;;;;;;;;;;4.55;65.31;98306.91;5029533;28;5300;-79
2023/03/09 03:52:58;;;;;;;;;;;;;;;4.57;65.41;98301.34;5030128;28;5088;-79
2023/03/09 03:55:24;;;;;;;;;;;;;;;4.58;65.07;98302.97;5008962;28;4647;-78
2023/03/09 03:57:51;;;;;;;;;;;;;;;4.61;65.14;98307.00;5006621;28;4567;-78
2023/03/09 04:00:19;;;;;;;;;;;;;;;4.58;65.18;98313.63;5026476;28;4810;-78
2023/03/09 04:02:45;;;;;;;;;;;;;;;4.57;65.12;98308.53;5024713;28;5075;-79
2023/03/09 04:05:13;;;;;;;;;;;;;;;4.54;65.09;98323.94;5051543;28;5208;-80
2023/03/09 04:07:39;;;;;;;;;;;;;;;4.57;64.96;98319.22;5036935;28;4897;-79
2023/03/09 04:10:06;;;;;;;;;;;;;;;4.55;65.02;98322.91;5028576;28;5284;-79
2023/03/09 04:12:32;;;;;;;;;;;;;;;4.56;65.10;98323.72;5009302;28;4955;-78
2023/03/09 04:15:19;;;;;;;;;;;;;;;4.54;65.31;98326.63;5025527;28;5121;-79
2023/03/09 04:18:06;;;;;;;;;;;;;;;4.54;65.26;98328.47;5026610;28;5056;-79
2023/03/09 04:20:53;;;;;;;;;;;;;;;4.55;65.18;98332.75;5031790;28;4897;-78
2023/03/09 04:23:39;;;;;;;;;;;;;;;4.55;65.26;98330.91;5030004;28;5136;-78
2023/03/09 04:26:26;;;;;;;;;;;;;;;4.55;64.94;98346.09;5026383;28;5042;-78
2023/03/09 04:29:18;;;;;;;;;;;;;;;4.59;64.70;98344.59;5024013;28;4182;-78
2023/03/09 04:32:10;;;;;;;;;;;;;;;4.57;64.75;98352.00;5029333;28;5033;-78
2023/03/09 04:35:01;;;;;;;;;;;;;;;4.53;64.88;98354.34;5034065;28;5108;-78
2023/03/09 04:37:48;;;;;;;;;;;;;;;4.55;64.63;98354.88;5038956;28;5159;-78
2023/03/09 04:40:39;;;;;;;;;;;;;;;4.54;64.76;98358.59;5029447;28;5199;-77
2023/03/09 04:43:06;;;;;;;;;;;;;;;4.53;64.61;98365.00;5024197;28;4759;-78
2023/03/09 04:45:33;;;;;;;;;;;;;;;4.54;63.99;98366.59;5023965;28;4605;-79
2023/03/09 04:47:59;;;;;;;;;;;;;;;4.48;63.82;98370.22;5035205;28;4942;-78
2023/03/09 04:50:26;;;;;;;;;;;;;;;4.45;63.86;98370.69;5025646;28;4365;-78
2023/03/09 04:52:52;;;;;;;;;;;;;;;4.46;64.00;98371.47;5009784;28;4955;-78
2023/03/09 04:55:19;;;;;;;;;;;;;;;4.48;64.45;98372.06;5027742;28;4708;-79
2023/03/09 04:57:45;;;;;;;;;;;;;;;4.49;63.70;98379.00;5024090;28;4830;-78
2023/03/09 05:00:12;;;;;;;;;;;;;;;4.50;63.63;98377.97;5006467;28;4918;-79
2023/03/09 05:02:38;;;;;;;;;;;;;;;4.53;63.86;98380.19;5026407;28;4519;-79
2023/03/09 05:05:05;;;;;;;;;;;;;;;4.51;63.84;98377.75;5007550;28;4542;-79
2023/03/09 05:07:31;;;;;;;;;;;;;;;4.50;64.32;98381.47;5010840;28;5123;-78
2023/03/09 05:09:58;;;;;;;;;;;;;;;4.62;63.70;98389.44;5027203;28;5097;-79
2023/03/09 05:12:31;;;;;;;;;;;;;;;4.53;64.15;98401.50;5020799;28;4543;-78
2023/03/09 05:14:57;;;;;;;;;;;;;;;4.53;64.13;98401.50;5022147;28;5034;-79
2023/03/09 05:17:24;;;;;;;;;;;;;;;4.53;64.24;98402.31;4986104;28;4421;-78
2023/03/09 05:19:50;;;;;;;;;;;;;;;4.55;64.19;98402.06;5006202;28;4949;-79
2023/03/09 05:22:17;;;;;;;;;;;;;;;4.51;64.07;98404.41;4989349;28;4466;-78
2023/03/09 05:24:44;;;;;;;;;;;;;;;4.60;64.10;98406.72;5005377;28;5025;-77
2023/03/09 05:27:12;;;;;;;;;;;;;;;4.55;64.07;98402.06;5019877;28;4650;-77
2023/03/09 05:29:39;;;;;;;;;;;;;;;4.59;63.92;98411.25;4985437;28;4442;-77
2023/03/09 05:32:06;;;;;;;;;;;;;;;4.58;64.06;98417.59;5025076;28;4326;-77
2023/03/09 05:34:33;;;;;;;;;;;;;;;4.58;64.02;98422.94;5005731;28;5252;-77
2023/03/09 05:36:59;;;;;;;;;;;;;;;4.54;64.25;98427.94;5012565;28;4892;-78
2023/03/09 05:39:26;;;;;;;;;;;;;;;4.53;64.29;98423.66;5023434;28;5116;-77
2023/03/09 05:41:53;;;;;;;;;;;;;;;4.59;64.21;98429.06;5005299;28;4725;-77
2023/03/09 05:44:19;;;;;;;;;;;;;;;4.55;64.21;98426.06;4999829;28;5172;-77
2023/03/09 05:46:46;;;;;;;;;;;;;;;4.54;64.25;98438.59;5017509;28;5026;-77
2023/03/09 05:49:12;;;;;;;;;;;;;;;4.61;64.23;98435.81;5020600;28;5073;-77
2023/03/09 05:51:39;;;;;;;;;;;;;;;4.56;64.09;98443.72;5004224;28;5305;-76
2023/03/09 05:54:05;;;;;;;;;;;;;;;4.55;64.41;98439.41;5012953;28;5334;-77
2023/03/09 05:56:32;;;;;;;;;;;;;;;4.54;64.31;98441.25;5009296;28;5295;-76
2023/03/09 05:58:59;;;;;;;;;;;;;;;4.55;64.30;98447.41;5004603;28;5137;-78
2023/03/09 06:01:26;;;;;;;;;;;;;;;4.55;64.34;98442.88;5003676;28;4961;-77
2023/03/09 06:03:52;;;;;;;;;;;;;;;4.59;64.07;98440.56;5001360;28;5157;-78
2023/03/09 06:06:19;;;;;;;;;;;;;;;4.59;64.25;98443.25;5031462;28;5164;-77
2023/03/09 06:08:46;;;;;;;;;;;;;;;4.65;64.07;98446.84;5039186;28;4887;-78
2023/03/09 06:11:12;;;;;;;;;;;;;;;4.57;64.31;98452.50;5021305;28;4981;-77
2023/03/09 06:13:39;;;;;;;;;;;;;;;4.54;64.30;98457.25;5023787;28;5206;-78
2023/03/09 06:16:05;;;;;;;;;;;;;;;4.57;64.26;98449.84;5052086;28;5191;-79
2023/03/09 06:18:32;;;;;;;;;;;;;;;4.59;64.15;98451.25;5051704;28;5208;-77
2023/03/09 06:20:58;;;;;;;;;;;;;;;4.63;63.98;98462.25;5036901;28;4965;-78
2023/03/09 06:23:25;;;;;;;;;;;;;;;4.57;64.22;98460.50;5025187;28;5351;-78
2023/03/09 06:25:52;;;;;;;;;;;;;;;4.60;64.12;98465.38;5053420;28;4402;-78
2023/03/09 06:28:19;;;;;;;;;;;;;;;4.54;64.27;98461.78;5018790;28;5199;-78
2023/03/09 06:30:46;;;;;;;;;;;;;;;4.57;64.24;98461.31;5020382;28;4832;-78
2023/03/09 06:33:12;;;;;;;;;;;;;;;4.61;63.99;98464.31;5040104;28;5082;-79
2023/03/09 06:35:39;;;;;;;;;;;;;;;4.58;64.11;98473.59;5024931;28;5250;-79
2023/03/09 06:38:05;;;;;;;;;;;;;;;4.57;64.27;98465.84;5055501;28;5089;-77
2023/03/09 06:40:32;;;;;;;;;;;;;;;4.67;63.92;98476.72;5038687;28;5365;-79
2023/03/09 06:42:58;;;;;;;;;;;;;;;4.65;63.84;98486.84;5017586;28;5194;-79
2023/03/09 06:45:25;;;;;;;;;;;;;;;4.59;64.02;98485.91;5037336;28;5128;-78
2023/03/09 06:47:52;;;;;;;;;;;;;;;4.64;63.81;98491.31;5011293;28;4978;-79
2023/03/09 06:50:18;;;;;;;;;;;;;;;4.61;64.06;98494.47;5036544;28;5146;-78
2023/03/09 06:52:45;;;;;;;;;;;;;;;4.61;63.92;98505.13;5054164;28;5448;-78
2023/03/09 06:55:11;;;;;;;;;;;;;;;4.61;63.92;98506.97;5024686;28;4677;-77
2023/03/09 06:57:38;;;;;;;;;;;;;;;4.63;63.94;98513.72;5039905;28;5273;-77
2023/03/09 07:00:06;;;;;;;;;;;;;;;4.55;64.13;98514.03;5041561;28;4899;-76
2023/03/09 07:02:32;;;;;;;;;;;;;;;4.54;64.19;98518.56;5039717;28;4883;-77
2023/03/09 07:04:59;;;;;;;;;;;;;;;4.55;64.06;98516.72;5042282;28;5394;-81
2023/03/09 07:07:26;;;;;;;;;;;;;;;4.59;63.88;98525.91;5025647;28;4815;-79
2023/03/09 07:09:52;;;;;;;;;;;;;;;4.57;64.04;98524.50;5044587;28;5547;-78
2023/03/09 07:12:19;;;;;;;;;;;;;;;4.58;63.85;98529.59;5007232;28;4874;-77
2023/03/09 07:14:46;;;;;;;;;;;;;;;4.59;64.05;98528.56;5002878;28;5025;-77
2023/03/09 07:17:13;;;;;;;;;;;;;;;4.55;64.14;98530.84;5022381;28;4773;-79
2023/03/09 07:19:40;;;;;;;;;;;;;;;4.62;63.90;98535.25;5054289;28;5101;-78
2023/03/09 07:22:12;;;;;;;;;;;;;;;4.61;63.73;98539.78;5039154;28;5445;-78
2023/03/09 07:24:45;;;;;;;;;;;;;;;4.59;63.88;98536.56;5022664;28;5388;-78
2023/03/09 07:27:11;;;;;;;;;;;;;;;4.62;63.78;98549.44;5026876;28;5295;-78
2023/03/09 07:29:40;;;;;;;;;;;;;;;4.64;63.72;98546.53;5038152;28;5262;-78
2023/03/09 07:32:07;;;;;;;;;;;;;;;4.63;63.83;98550.25;5038251;28;4916;-77
2023/03/09 07:34:34;;;;;;;;;;;;;;;4.60;63.75;98550.69;5024387;28;4453;-76
2023/03/09 07:37:00;;;;;;;;;;;;;;;4.60;64.01;98553.38;5043644;28;5091;-77
2023/03/09 07:39:30;;;;;;;;;;;;;;;4.61;63.81;98553.13;5039296;28;5996;-78
2023/03/09 07:41:57;;;;;;;;;;;;;;;4.61;63.76;98563.78;5058280;28;5215;-78
2023/03/09 07:44:26;;;;;;;;;;;;;;;4.58;63.95;98563.44;5050638;28;5243;-79
2023/03/09 07:46:53;;;;;;;;;;;;;;;4.63;63.72;98568.91;5028139;28;4855;-77
2023/03/09 07:49:20;;;;;;;;;;;;;;;4.63;63.78;98575.03;5051309;28;5182;-77
2023/03/09 07:51:46;;;;;;;;;;;;;;;4.68;63.48;98577.03;5017883;28;5225;-77
2023/03/09 07:54:14;;;;;;;;;;;;;;;4.60;63.88;98574.69;5014927;28;5178;-78
2023/03/09 07:56:40;;;;;;;;;;;;;;;4.63;63.43;98580.38;5026585;28;5169;-78
2023/03/09 07:59:07;;;;;;;;;;;;;;;4.67;63.60;98586.88;5042616;28;4931;-78
2023/03/09 08:01:33;;;;;;;;;;;;;;;4.62;63.78;98584.09;5023181;28;4974;-78
2023/03/09 08:04:00;;;;;;;;;;;;;;;4.59;63.82;98589.03;5018742;28;5266;-77
2023/03/09 08:06:27;;;;;;;;;;;;;;;4.63;63.83;98595.56;5020427;28;5264;-76
2023/03/09 08:08:54;;;;;;;;;;;;;;;4.61;63.85;98595.78;5055741;28;5094;-77
2023/03/09 08:11:21;;;;;;;;;;;;;;;4.67;63.45;98599.38;5023429;28;4957;-77
2023/03/09 08:13:48;;;;;;;;;;;;;;;4.68;63.60;98601.84;5056655;28;5399;-77
2023/03/09 08:16:14;;;;;;;;;;;;;;;4.66;63.43;98600.44;5037620;28;5378;-77
2023/03/09 08:18:41;;;;;;;;;;;;;;;4.65;63.72;98604.16;5042571;28;5555;-78
2023/03/09 08:21:07;;;;;;;;;;;;;;;4.71;63.46;98605.91;5047098;28;5378;-77
2023/03/09 08:23:35;;;;;;;;;;;;;;;4.74;63.23;98600.94;5049337;28;5019;-77
2023/03/09 08:26:02;;;;;;;;;;;;;;;4.67;63.46;98608.19;5047073;28;5142;-77
2023/03/09 08:28:28;;;;;;;;;;;;;;;4.75;63.29;98607.06;5030098;28;4991;-78
2023/03/09 08:30:55;;;;;;;;;;;;;;;4.74;63.37;98613.44;5036168;28;4995;-78
2023/03/09 08:33:21;;;;;;;;;;;;;;;4.69;63.61;98619.47;5015556;28;5022;-77
2023/03/09 08:35:48;;;;;;;;;;;;;;;4.68;63.59;98617.03;5024115;28;5106;-77
2023/03/09 08:38:15;;;;;;;;;;;;;;;4.76;63.41;98619.34;5027538;28;4942;-77
2023/03/09 08:40:41;;;;;;;;;;;;;;;4.74;63.53;98616.13;5002573;28;5113;-77
2023/03/09 08:43:08;;;;;;;;;;;;;;;4.68;63.51;98622.38;5013028;28;3914;-78
2023/03/09 08:45:34;;;;;;;;;;;;;;;4.69;63.53;98618.66;5016370;28;3865;-76
2023/03/09 08:48:01;;;;;;;;;;;;;;;4.73;63.30;98623.28;5012436;28;5468;-77
2023/03/09 08:50:29;;;;;;;;;;;;;;;4.71;63.58;98612.06;5037088;28;4447;-76
2023/03/09 08:52:55;;;;;;;;;;;;;;;4.80;63.25;98615.19;5041904;28;5097;-76
2023/03/09 08:55:22;;;;;;;;;;;;;;;4.76;63.47;98617.53;5045159;28;1758;-77
2023/03/09 08:57:48;;;;;;;;;;;;;;;4.75;63.54;98610.53;5037139;28;5700;-76
2023/03/09 09:00:15;;;;;;;;;;;;;;;4.75;63.34;98617.72;5011294;28;4380;-78
2023/03/09 09:02:42;;;;;;;;;;;;;;;4.85;63.28;98622.50;5013257;28;4263;-77
2023/03/09 09:05:08;;;;;;;;;;;;;;;4.76;63.36;98616.69;5032754;28;2538;-77
2023/03/09 09:07:35;;;;;;;;;;;;;;;4.75;63.52;98623.88;5060881;28;2394;-77
2023/03/09 09:10:02;;;;;;;;;;;;;;;4.75;63.74;98617.72;5066671;28;2641;-78
2023/03/09 09:12:32;;;;;;;;;;;;;;;4.82;63.35;98626.44;5036377;28;3682;-78
2023/03/09 09:14:58;;;;;;;;;;;;;;;4.82;63.58;98618.44;5055889;28;3026;-79
2023/03/09 09:17:25;;;;;;;;;;;;;;;4.79;63.52;98618.88;5041952;28;5056;-80
2023/03/09 09:19:51;;;;;;;;;;;;;;;4.79;63.62;98629.56;5047834;28;4814;-78
2023/03/09 09:22:18;;;;;;;;;;;;;;;4.87;63.37;98621.22;5021545;28;5270;-78
2023/03/09 09:24:44;;;;;;;;;;;;;;;4.83;63.46;98628.06;5028045;28;5126;-78
2023/03/09 09:27:11;;;;;;;;;;;;;;;4.86;63.25;98632.16;5061343;28;4767;-78
2023/03/09 09:29:38;;;;;;;;;;;;;;;4.86;63.36;98634.81;5043545;28;5336;-79
2023/03/09 09:32:04;;;;;;;;;;;;;;;4.88;63.39;98633.53;5040137;28;5209;-78
2023/03/09 09:34:32;;;;;;;;;;;;;;;4.92;63.03;98628.56;5043217;28;5330;-79
2023/03/09 09:37:00;;;;;;;;;;;;;;;4.85;63.50;98623.31;5044777;28;5346;-78
2023/03/09 09:39:26;;;;;;;;;;;;;;;4.89;63.41;98621.00;5044413;28;4805;-77
2023/03/09 09:41:55;;;;;;;;;;;;;;;4.92;63.40;98624.03;5046379;28;4974;-78
2023/03/09 09:44:22;;;;;;;;;;;;;;;4.90;63.41;98635.97;5025240;28;5224;-78
2023/03/09 09:46:48;;;;;;;;;;;;;;;4.92;63.48;98631.22;5044082;28;5334;-78
2023/03/09 09:49:15;;;;;;;;;;;;;;;4.90;63.55;98636.78;5041602;28;5112;-77
2023/03/09 09:51:41;;;;;;;;;;;;;;;4.93;63.33;98640.84;5045572;28;5291;-77
2023/03/09 09:54:08;;;;;;;;;;;;;;;4.94;63.40;98634.47;5041023;28;5016;-76
2023/03/09 09:56:34;;;;;;;;;;;;;;;4.98;63.38;98647.13;5027643;28;5152;-77
2023/03/09 09:59:01;;;;;;;;;;;;;;;5.00;63.36;98645.03;5025722;28;4886;-76
2023/03/09 10:01:28;;;;;;;;;;;;;;;5.03;63.25;98653.59;5038615;28;5182;-76
2023/03/09 10:03:54;;;;;;;;;;;;;;;5.03;63.39;98651.78;5022598;28;4939;-77
2023/03/09 10:06:21;;;;;;;;;;;;;;;5.08;63.18;98654.56;5039991;28;4905;-77
2023/03/09 10:08:48;;;;;;;;;;;;;;;5.09;63.17;98664.19;5039791;28;5380;-76
2023/03/09 10:11:15;;;;;;;;;;;;;;;5.05;63.42;98663.00;5042709;28;5045;-78
2023/03/09 10:13:42;;;;;;;;;;;;;;;5.04;63.29;98658.72;5031314;28;5106;-77
2023/03/09 10:16:08;;;;;;;;;;;;;;;5.01;63.50;98654.66;5042439;28;4950;-76
2023/03/09 10:18:35;;;;;;;;;;;;;;;5.11;63.19;98651.41;5060077;28;4914;-77
2023/03/09 10:21:01;;;;;;;;;;;;;;;5.08;63.31;98657.22;5035841;28;5145;-78
2023/03/09 10:23:28;;;;;;;;;;;;;;;5.08;63.30;98657.22;5035289;28;4804;-76
2023/03/09 10:25:55;;;;;;;;;;;;;;;5.09;63.30;98660.69;5056336;28;4891;-76
2023/03/09 10:28:21;;;;;;;;;;;;;;;5.14;63.27;98658.16;5024140;28;5031;-76
2023/03/09 10:30:48;;;;;;;;;;;;;;;5.15;62.99;98659.81;5043047;28;5187;-76
2023/03/09 10:33:14;;;;;;;;;;;;;;;5.16;63.27;98661.41;5039784;28;5061;-77
2023/03/09 10:35:41;;;;;;;;;;;;;;;5.11;63.41;98662.09;5040257;28;5353;-77
2023/03/09 10:38:07;;;;;;;;;;;;;;;5.20;63.20;98658.03;5029779;28;4812;-78
2023/03/09 10:40:34;;;;;;;;;;;;;;;5.18;63.32;98660.16;5015179;28;4772;-77
2023/03/09 10:43:01;;;;;;;;;;;;;;;5.15;63.58;98668.63;5043282;28;4793;-78
2023/03/09 10:45:27;;;;;;;;;;;;;;;5.21;63.53;98665.03;5043279;28;4497;-79
2023/03/09 10:47:54;;;;;;;;;;;;;;;5.24;63.29;98666.41;5031992;28;5063;-79
2023/03/09 10:50:22;;;;;;;;;;;;;;;5.29;62.99;98668.38;5020327;28;5399;-79
2023/03/09 10:52:48;;;;;;;;;;;;;;;5.25;63.32;98668.03;5014524;28;4753;-78
2023/03/09 10:55:15;;;;;;;;;;;;;;;5.32;63.18;98667.91;5029032;28;5449;-79
2023/03/09 10:57:41;;;;;;;;;;;;;;;5.28;63.43;98670.25;5012736;28;5002;-79
2023/03/09 11:00:08;;;;;;;;;;;;;;;5.32;63.26;98670.59;5055814;28;4905;-79
2023/03/09 11:02:35;;;;;;;;;;;;;;;5.29;63.57;98674.53;5031423;28;5011;-80
2023/03/09 11:05:01;;;;;;;;;;;;;;;5.37;63.42;98679.53;5058434;28;5260;-81
2023/03/09 11:07:28;;;;;;;;;;;;;;;5.35;63.27;98684.28;5041378;28;5270;-80
2023/03/09 11:09:54;;;;;;;;;;;;;;;5.33;63.30;98683.72;5031906;28;5229;-80
2023/03/09 11:12:21;;;;;;;;;;;;;;;5.34;63.43;98681.84;5030824;28;5105;-80
2023/03/09 11:14:48;;;;;;;;;;;;;;;5.37;63.14;98684.06;5029711;28;5380;-80
2023/03/09 11:17:14;;;;;;;;;;;;;;;5.34;63.41;98680.00;5033051;28;5253;-79
2023/03/09 11:19:41;;;;;;;;;;;;;;;5.42;63.29;98678.84;5044225;28;5282;-80
2023/03/09 11:22:07;;;;;;;;;;;;;;;5.39;63.52;98682.78;5027204;28;5319;-80
2023/03/09 11:24:34;;;;;;;;;;;;;;;5.43;63.32;98680.47;5046202;28;5072;-79
2023/03/09 11:27:01;;;;;;;;;;;;;;;5.45;63.58;98678.38;5024628;28;5138;-79
2023/03/09 11:29:29;;;;;;;;;;;;;;;5.47;63.26;98685.13;5028091;28;4567;-79
2023/03/09 11:31:56;;;;;;;;;;;;;;;5.50;63.25;98686.53;5041484;28;4612;-78
2023/03/09 11:34:23;;;;;;;;;;;;;;;5.51;63.08;98682.81;5024443;28;5318;-80
2023/03/09 11:36:52;;;;;;;;;;;;;;;5.56;63.19;98684.75;5044128;28;5201;-79
2023/03/09 11:39:19;;;;;;;;;;;;;;;5.55;63.39;98685.81;5042928;28;5350;-79
2023/03/09 11:41:45;;;;;;;;;;;;;;;4.99;63.14;98595.38;5029807;28;5541;-82
2023/03/09 11:44:12;;;;;;;;;;;;;;;5.60;63.21;98677.91;5017818;28;5152;-82
2023/03/09 11:46:38;;;;;;;;;;;;;;;5.53;63.36;98677.22;5032945;28;5042;-81
2023/03/09 11:49:05;;;;;;;;;;;;;;;5.58;63.60;98680.00;5048822;28;5185;-80
2023/03/09 11:51:32;;;;;;;;;;;;;;;5.57;63.54;98678.38;5048651;28;5179;-80
2023/03/09 11:53:58;;;;;;;;;;;;;;;5.59;63.33;98673.59;5033264;28;5177;-83
2023/03/09 11:56:25;;;;;;;;;;;;;;;5.60;63.44;98680.59;5048303;28;4763;-81
2023/03/09 11:58:52;;;;;;;;;;;;;;;5.61;63.49;98669.66;5034387;28;4707;-81
2023/03/09 12:01:18;;;;;;;;;;;;;;;5.68;63.31;98675.72;5034140;28;4843;-82
2023/03/09 12:03:45;;;;;;;;;;;;;;;5.69;63.33;98677.31;5033498;28;4808;-82
2023/03/09 12:06:11;;;;;;;;;;;;;;;5.69;63.39;98677.31;5033815;28;4783;-81
2023/03/09 12:08:38;;;;;;;;;;;;;;;5.73;63.52;98676.84;5008808;28;5195;-81
2023/03/09 12:11:04;;;;;;;;;;;;;;;5.77;63.25;98675.38;5009985;28;5144;-83
2023/03/09 12:13:32;;;;;;;;;;;;;;;5.74;63.54;98681.97;5001196;28;5133;-81
2023/03/09 12:16:00;;;;;;;;;;;;;;;5.76;63.62;98682.53;5010760;28;5286;-82
2023/03/09 12:18:28;;;;;;;;;;;;;;;5.78;63.71;98680.47;5010931;28;4393;-79
2023/03/09 12:20:54;;;;;;;;;;;;;;;5.73;63.54;98680.34;5009113;28;5418;-82
2023/03/09 12:23:21;;;;;;;;;;;;;;;5.80;63.65;98680.25;5030947;28;5154;-80
2023/03/09 12:25:48;;;;;;;;;;;;;;;5.84;63.51;98678.72;5009101;28;4870;-79
2023/03/09 12:28:18;;;;;;;;;;;;;;;5.82;63.42;98678.94;4994571;28;5298;-80
2023/03/09 12:30:45;;;;;;;;;;;;;;;5.86;63.63;98681.97;5014096;28;5142;-79
2023/03/09 12:33:13;;;;;;;;;;;;;;;5.86;63.51;98668.63;4994022;28;5202;-80
2023/03/09 12:35:40;;;;;;;;;;;;;;;5.83;63.62;98675.22;5008491;28;5168;-81
2023/03/09 12:38:07;;;;;;;;;;;;;;;5.89;63.54;98676.16;5023976;28;5386;-83
2023/03/09 12:40:33;;;;;;;;;;;;;;;5.89;63.54;98679.63;4999696;28;4561;-81
2023/03/09 12:43:00;;;;;;;;;;;;;;;5.95;63.75;98672.56;4993172;28;5158;-80
2023/03/09 12:45:26;;;;;;;;;;;;;;;5.99;63.40;98672.91;5006534;28;4841;-80
2023/03/09 12:47:53;;;;;;;;;;;;;;;5.97;63.41;98672.31;5024120;28;5054;-81
2023/03/09 12:50:20;;;;;;;;;;;;;;;6.00;63.50;98671.84;5016174;28;5494;-82
2023/03/09 12:52:47;;;;;;;;;;;;;;;5.97;63.49;98675.84;5009973;28;5391;-79
2023/03/09 12:55:14;;;;;;;;;;;;;;;5.72;49.18;98678.72;5029050;28;5280;-77
2023/03/09 12:57:40;;;;;;;;;;;;;;;2.95;37.13;98669.56;5008277;28;5115;-81
2023/03/09 13:00:07;;;;;;;;;;;;;;;5.20;45.90;98667.91;5013640;28;5275;-83
2023/03/09 13:02:34;;;;;;;;;;;;;;;5.54;46.99;98676.19;4993612;28;5045;-83
2023/03/09 13:05:01;;;;;;;;;;;;;;;5.73;48.91;98685.69;4998070;28;5291;-82
2023/03/09 13:07:27;;;;;;;;;;;;;;;5.83;49.97;98680.56;5034434;28;4929;-80